New Milford, Connecticut
Current Conditions -  °F | °C
As of 12:53 PM on Friday 28 Nov 2014 (Local Time) from KDXR Reporting Station
Few Clouds Few Clouds  
Wind Chill: 25°   Ceiling: Unl
Heat Index: 34°   Visibility: 10mi
Dew Point: 17°   Wind: 12mph
Humidity: 50%   Direction: 290°WNW
Pressure: 30.12"   Gusts: NA
Location:  41.58°N, 73.41°W
Report Text: KDXR 281753Z 29010KT 260V320 10SM FEW035 01/M08 A3012 RMK AO2 SLP202 T00111083 10011 21050 56013
Loading
Personal Weather Stations






























Interactive Weather Map New forecast layout! Learn more

10-Day Weather Forecast

Advertisements
Track Severe Weather on mobile